sensor_id;sensor_type;location;lat;lon;timestamp;P1;durP1;ratioP1;P2;durP2;ratioP2
16101;SDS011;56411;52.964;10.540;2023-07-16T00:01:37;4.78;;;2.28;;
16101;SDS011;56411;52.964;10.540;2023-07-16T00:04:04;3.95;;;2.35;;
16101;SDS011;56411;52.964;10.540;2023-07-16T00:06:31;3.67;;;2.15;;
16101;SDS011;56411;52.964;10.540;2023-07-16T00:09:00;4.80;;;2.30;;
16101;SDS011;56411;52.964;10.540;2023-07-16T00:11:28;4.07;;;2.20;;
16101;SDS011;56411;52.964;10.540;2023-07-16T00:13:55;3.70;;;2.10;;
16101;SDS011;56411;52.964;10.540;2023-07-16T00:16:22;4.18;;;2.30;;
16101;SDS011;56411;52.964;10.540;2023-07-16T00:18:49;4.45;;;2.10;;
16101;SDS011;56411;52.964;10.540;2023-07-16T00:21:16;4.47;;;2.28;;
16101;SDS011;56411;52.964;10.540;2023-07-16T00:23:43;3.65;;;2.20;;
16101;SDS011;56411;52.964;10.540;2023-07-16T00:26:12;2.97;;;2.00;;
16101;SDS011;56411;52.964;10.540;2023-07-16T00:28:39;4.53;;;2.28;;
16101;SDS011;56411;52.964;10.540;2023-07-16T00:31:06;3.33;;;2.00;;
16101;SDS011;56411;52.964;10.540;2023-07-16T00:33:33;5.55;;;2.40;;
16101;SDS011;56411;52.964;10.540;2023-07-16T00:36:00;6.15;;;2.15;;
16101;SDS011;56411;52.964;10.540;2023-07-16T00:38:27;6.82;;;2.15;;
16101;SDS011;56411;52.964;10.540;2023-07-16T00:40:53;45.38;;;6.50;;
16101;SDS011;56411;52.964;10.540;2023-07-16T00:43:22;4.32;;;2.10;;
16101;SDS011;56411;52.964;10.540;2023-07-16T00:45:49;4.13;;;2.30;;
16101;SDS011;56411;52.964;10.540;2023-07-16T00:48:16;4.28;;;2.00;;
16101;SDS011;56411;52.964;10.540;2023-07-16T00:50:45;4.25;;;2.20;;
16101;SDS011;56411;52.964;10.540;2023-07-16T00:53:12;5.07;;;2.30;;
16101;SDS011;56411;52.964;10.540;2023-07-16T00:55:39;4.38;;;2.10;;
16101;SDS011;56411;52.964;10.540;2023-07-16T00:58:06;3.58;;;2.10;;
16101;SDS011;56411;52.964;10.540;2023-07-16T01:00:36;3.75;;;2.17;;
16101;SDS011;56411;52.964;10.540;2023-07-16T01:03:05;4.47;;;2.40;;
16101;SDS011;56411;52.964;10.540;2023-07-16T01:05:34;4.47;;;2.30;;
16101;SDS011;56411;52.964;10.540;2023-07-16T01:08:09;3.08;;;2.10;;
16101;SDS011;56411;52.964;10.540;2023-07-16T01:10:36;4.13;;;2.20;;
16101;SDS011;56411;52.964;10.540;2023-07-16T01:13:05;3.75;;;2.20;;
16101;SDS011;56411;52.964;10.540;2023-07-16T01:15:32;5.60;;;2.50;;
16101;SDS011;56411;52.964;10.540;2023-07-16T01:18:01;3.22;;;2.17;;
16101;SDS011;56411;52.964;10.540;2023-07-16T01:20:29;4.57;;;2.17;;
16101;SDS011;56411;52.964;10.540;2023-07-16T01:23:08;6.63;;;2.35;;
16101;SDS011;56411;52.964;10.540;2023-07-16T01:25:54;6.03;;;2.35;;
16101;SDS011;56411;52.964;10.540;2023-07-16T01:29:03;5.95;;;2.40;;
16101;SDS011;56411;52.964;10.540;2023-07-16T01:31:59;4.28;;;2.30;;
16101;SDS011;56411;52.964;10.540;2023-07-16T01:34:29;3.33;;;1.90;;
16101;SDS011;56411;52.964;10.540;2023-07-16T01:36:59;3.67;;;2.10;;
16101;SDS011;56411;52.964;10.540;2023-07-16T01:39:26;4.10;;;2.05;;
16101;SDS011;56411;52.964;10.540;2023-07-16T01:41:53;4.85;;;2.17;;
16101;SDS011;56411;52.964;10.540;2023-07-16T01:44:22;4.10;;;2.15;;
16101;SDS011;56411;52.964;10.540;2023-07-16T01:46:59;5.45;;;2.40;;
16101;SDS011;56411;52.964;10.540;2023-07-16T01:49:32;4.35;;;2.40;;
16101;SDS011;56411;52.964;10.540;2023-07-16T01:51:59;4.18;;;2.10;;
16101;SDS011;56411;52.964;10.540;2023-07-16T01:54:28;4.82;;;2.60;;
16101;SDS011;56411;52.964;10.540;2023-07-16T01:56:55;3.25;;;2.13;;
16101;SDS011;56411;52.964;10.540;2023-07-16T01:59:23;4.30;;;2.20;;
16101;SDS011;56411;52.964;10.540;2023-07-16T02:01:50;5.55;;;2.50;;
16101;SDS011;56411;52.964;10.540;2023-07-16T02:04:17;4.72;;;2.30;;
16101;SDS011;56411;52.964;10.540;2023-07-16T02:06:44;5.22;;;2.50;;
16101;SDS011;56411;52.964;10.540;2023-07-16T02:09:13;5.38;;;2.42;;
16101;SDS011;56411;52.964;10.540;2023-07-16T02:11:40;3.88;;;2.03;;
16101;SDS011;56411;52.964;10.540;2023-07-16T02:14:07;6.05;;;2.40;;
16101;SDS011;56411;52.964;10.540;2023-07-16T02:16:36;4.07;;;2.13;;
16101;SDS011;56411;52.964;10.540;2023-07-16T02:19:03;5.18;;;2.40;;
16101;SDS011;56411;52.964;10.540;2023-07-16T02:21:30;4.75;;;2.20;;
16101;SDS011;56411;52.964;10.540;2023-07-16T02:23:57;7.28;;;2.50;;
16101;SDS011;56411;52.964;10.540;2023-07-16T02:26:24;6.07;;;2.30;;
16101;SDS011;56411;52.964;10.540;2023-07-16T02:28:51;6.82;;;2.20;;
16101;SDS011;56411;52.964;10.540;2023-07-16T02:31:18;4.47;;;2.33;;
16101;SDS011;56411;52.964;10.540;2023-07-16T02:33:47;6.90;;;2.40;;
16101;SDS011;56411;52.964;10.540;2023-07-16T02:36:14;3.85;;;2.20;;
16101;SDS011;56411;52.964;10.540;2023-07-16T02:38:43;4.78;;;2.20;;
16101;SDS011;56411;52.964;10.540;2023-07-16T02:41:10;5.15;;;2.20;;
16101;SDS011;56411;52.964;10.540;2023-07-16T02:43:36;4.22;;;2.20;;
16101;SDS011;56411;52.964;10.540;2023-07-16T02:46:04;6.97;;;2.25;;
16101;SDS011;56411;52.964;10.540;2023-07-16T02:48:31;5.25;;;2.30;;
16101;SDS011;56411;52.964;10.540;2023-07-16T02:50:59;5.68;;;2.20;;
16101;SDS011;56411;52.964;10.540;2023-07-16T02:53:26;4.20;;;2.20;;
16101;SDS011;56411;52.964;10.540;2023-07-16T02:55:53;6.35;;;2.47;;
16101;SDS011;56411;52.964;10.540;2023-07-16T02:58:20;5.57;;;2.40;;
16101;SDS011;56411;52.964;10.540;2023-07-16T03:00:47;6.72;;;2.50;;
16101;SDS011;56411;52.964;10.540;2023-07-16T03:03:14;5.70;;;2.20;;
16101;SDS011;56411;52.964;10.540;2023-07-16T03:05:41;6.15;;;2.33;;
16101;SDS011;56411;52.964;10.540;2023-07-16T03:08:10;6.65;;;2.30;;
16101;SDS011;56411;52.964;10.540;2023-07-16T03:10:37;5.20;;;2.22;;
16101;SDS011;56411;52.964;10.540;2023-07-16T03:13:04;6.47;;;2.25;;
16101;SDS011;56411;52.964;10.540;2023-07-16T03:15:31;6.13;;;2.58;;
16101;SDS011;56411;52.964;10.540;2023-07-16T03:17:58;6.05;;;2.30;;
16101;SDS011;56411;52.964;10.540;2023-07-16T03:20:25;8.15;;;2.60;;
16101;SDS011;56411;52.964;10.540;2023-07-16T03:22:52;5.88;;;2.42;;
16101;SDS011;56411;52.964;10.540;2023-07-16T03:25:20;3.97;;;2.25;;
16101;SDS011;56411;52.964;10.540;2023-07-16T03:27:48;6.65;;;2.60;;
16101;SDS011;56411;52.964;10.540;2023-07-16T03:30:15;8.25;;;2.60;;
16101;SDS011;56411;52.964;10.540;2023-07-16T03:32:42;6.63;;;2.30;;
16101;SDS011;56411;52.964;10.540;2023-07-16T03:35:09;4.60;;;2.40;;
16101;SDS011;56411;52.964;10.540;2023-07-16T03:37:36;6.38;;;2.45;;
16101;SDS011;56411;52.964;10.540;2023-07-16T03:40:12;4.93;;;2.30;;
16101;SDS011;56411;52.964;10.540;2023-07-16T03:42:42;4.38;;;2.30;;
16101;SDS011;56411;52.964;10.540;2023-07-16T03:45:10;6.53;;;2.58;;
16101;SDS011;56411;52.964;10.540;2023-07-16T03:47:37;6.45;;;2.72;;
16101;SDS011;56411;52.964;10.540;2023-07-16T03:50:04;6.57;;;2.35;;
16101;SDS011;56411;52.964;10.540;2023-07-16T03:52:32;5.63;;;2.45;;
16101;SDS011;56411;52.964;10.540;2023-07-16T03:54:59;6.28;;;2.63;;
16101;SDS011;56411;52.964;10.540;2023-07-16T03:57:27;7.28;;;2.65;;
16101;SDS011;56411;52.964;10.540;2023-07-16T03:59:56;8.73;;;3.00;;
16101;SDS011;56411;52.964;10.540;2023-07-16T04:02:23;5.35;;;2.50;;
16101;SDS011;56411;52.964;10.540;2023-07-16T04:04:51;5.63;;;2.53;;
16101;SDS011;56411;52.964;10.540;2023-07-16T04:07:18;8.15;;;2.58;;
16101;SDS011;56411;52.964;10.540;2023-07-16T04:09:45;4.90;;;2.40;;
16101;SDS011;56411;52.964;10.540;2023-07-16T04:12:12;6.25;;;2.70;;
16101;SDS011;56411;52.964;10.540;2023-07-16T04:14:40;5.88;;;2.78;;
16101;SDS011;56411;52.964;10.540;2023-07-16T04:17:08;7.57;;;2.95;;
16101;SDS011;56411;52.964;10.540;2023-07-16T04:19:35;7.85;;;2.95;;
16101;SDS011;56411;52.964;10.540;2023-07-16T04:22:03;6.75;;;2.92;;
16101;SDS011;56411;52.964;10.540;2023-07-16T04:24:30;8.63;;;2.80;;
16101;SDS011;56411;52.964;10.540;2023-07-16T04:26:58;7.13;;;3.20;;
16101;SDS011;56411;52.964;10.540;2023-07-16T04:29:25;7.45;;;2.92;;
16101;SDS011;56411;52.964;10.540;2023-07-16T04:31:52;6.50;;;2.80;;
16101;SDS011;56411;52.964;10.540;2023-07-16T04:34:21;7.68;;;3.10;;
16101;SDS011;56411;52.964;10.540;2023-07-16T04:36:47;5.43;;;2.85;;
16101;SDS011;56411;52.964;10.540;2023-07-16T04:39:14;5.28;;;2.50;;
16101;SDS011;56411;52.964;10.540;2023-07-16T04:41:41;7.07;;;2.65;;
16101;SDS011;56411;52.964;10.540;2023-07-16T04:44:08;8.05;;;2.85;;
16101;SDS011;56411;52.964;10.540;2023-07-16T04:46:36;5.10;;;2.60;;
16101;SDS011;56411;52.964;10.540;2023-07-16T04:49:04;7.30;;;3.00;;
16101;SDS011;56411;52.964;10.540;2023-07-16T04:51:32;6.93;;;2.60;;
16101;SDS011;56411;52.964;10.540;2023-07-16T04:53:59;7.00;;;2.65;;
16101;SDS011;56411;52.964;10.540;2023-07-16T04:56:26;7.20;;;2.72;;
16101;SDS011;56411;52.964;10.540;2023-07-16T04:58:53;5.80;;;2.83;;
16101;SDS011;56411;52.964;10.540;2023-07-16T05:01:21;5.68;;;2.75;;
16101;SDS011;56411;52.964;10.540;2023-07-16T05:03:47;5.93;;;2.70;;
16101;SDS011;56411;52.964;10.540;2023-07-16T05:06:15;6.63;;;2.60;;
16101;SDS011;56411;52.964;10.540;2023-07-16T05:08:43;9.10;;;3.20;;
16101;SDS011;56411;52.964;10.540;2023-07-16T05:11:11;6.10;;;3.03;;
16101;SDS011;56411;52.964;10.540;2023-07-16T05:13:39;4.72;;;2.60;;
16101;SDS011;56411;52.964;10.540;2023-07-16T05:16:06;5.35;;;2.58;;
16101;SDS011;56411;52.964;10.540;2023-07-16T05:18:33;8.13;;;2.90;;
16101;SDS011;56411;52.964;10.540;2023-07-16T05:21:00;6.38;;;2.67;;
16101;SDS011;56411;52.964;10.540;2023-07-16T05:23:27;8.13;;;2.72;;
16101;SDS011;56411;52.964;10.540;2023-07-16T05:25:55;6.50;;;2.97;;
16101;SDS011;56411;52.964;10.540;2023-07-16T05:28:22;5.28;;;2.83;;
16101;SDS011;56411;52.964;10.540;2023-07-16T05:30:57;5.55;;;2.88;;
16101;SDS011;56411;52.964;10.540;2023-07-16T05:33:24;7.93;;;3.05;;
16101;SDS011;56411;52.964;10.540;2023-07-16T05:35:51;7.78;;;3.00;;
16101;SDS011;56411;52.964;10.540;2023-07-16T05:38:18;7.40;;;2.72;;
16101;SDS011;56411;52.964;10.540;2023-07-16T05:40:45;6.45;;;2.80;;
16101;SDS011;56411;52.964;10.540;2023-07-16T05:43:16;7.32;;;2.88;;
16101;SDS011;56411;52.964;10.540;2023-07-16T05:45:43;6.95;;;2.80;;
16101;SDS011;56411;52.964;10.540;2023-07-16T05:48:10;7.43;;;2.78;;
16101;SDS011;56411;52.964;10.540;2023-07-16T05:50:38;6.70;;;2.80;;
16101;SDS011;56411;52.964;10.540;2023-07-16T05:53:05;7.18;;;2.70;;
16101;SDS011;56411;52.964;10.540;2023-07-16T05:55:32;6.55;;;2.80;;
16101;SDS011;56411;52.964;10.540;2023-07-16T05:58:00;7.82;;;2.83;;
16101;SDS011;56411;52.964;10.540;2023-07-16T06:00:28;5.93;;;2.60;;
16101;SDS011;56411;52.964;10.540;2023-07-16T06:02:55;6.97;;;3.28;;
16101;SDS011;56411;52.964;10.540;2023-07-16T06:05:23;7.88;;;3.80;;
16101;SDS011;56411;52.964;10.540;2023-07-16T06:07:51;7.05;;;4.00;;
16101;SDS011;56411;52.964;10.540;2023-07-16T06:10:18;7.57;;;3.70;;
16101;SDS011;56411;52.964;10.540;2023-07-16T06:12:54;8.68;;;3.60;;
16101;SDS011;56411;52.964;10.540;2023-07-16T06:15:21;9.77;;;3.20;;
16101;SDS011;56411;52.964;10.540;2023-07-16T06:17:50;7.78;;;3.75;;
16101;SDS011;56411;52.964;10.540;2023-07-16T06:20:17;9.07;;;3.35;;
16101;SDS011;56411;52.964;10.540;2023-07-16T06:22:44;6.38;;;2.90;;
16101;SDS011;56411;52.964;10.540;2023-07-16T06:25:11;7.60;;;3.45;;
16101;SDS011;56411;52.964;10.540;2023-07-16T06:27:40;8.02;;;3.53;;
16101;SDS011;56411;52.964;10.540;2023-07-16T06:30:09;7.72;;;3.00;;
16101;SDS011;56411;52.964;10.540;2023-07-16T06:32:36;5.97;;;3.00;;
16101;SDS011;56411;52.964;10.540;2023-07-16T06:35:05;6.10;;;3.00;;
16101;SDS011;56411;52.964;10.540;2023-07-16T06:37:32;7.18;;;2.88;;
16101;SDS011;56411;52.964;10.540;2023-07-16T06:39:59;9.40;;;3.08;;
16101;SDS011;56411;52.964;10.540;2023-07-16T06:42:28;7.93;;;2.90;;
16101;SDS011;56411;52.964;10.540;2023-07-16T06:44:55;6.03;;;2.92;;
16101;SDS011;56411;52.964;10.540;2023-07-16T06:47:22;6.93;;;2.80;;
16101;SDS011;56411;52.964;10.540;2023-07-16T06:49:49;5.50;;;3.03;;
16101;SDS011;56411;52.964;10.540;2023-07-16T06:55:38;11.15;;;3.03;;
16101;SDS011;56411;52.964;10.540;2023-07-16T06:58:09;7.65;;;2.90;;
16101;SDS011;56411;52.964;10.540;2023-07-16T07:00:40;5.72;;;3.00;;
16101;SDS011;56411;52.964;10.540;2023-07-16T07:03:07;6.72;;;2.92;;
16101;SDS011;56411;52.964;10.540;2023-07-16T07:05:34;8.18;;;3.10;;
16101;SDS011;56411;52.964;10.540;2023-07-16T07:08:03;7.40;;;3.00;;
16101;SDS011;56411;52.964;10.540;2023-07-16T07:10:40;6.40;;;2.80;;
16101;SDS011;56411;52.964;10.540;2023-07-16T07:13:08;6.45;;;2.65;;
16101;SDS011;56411;52.964;10.540;2023-07-16T07:15:35;5.88;;;2.50;;
16101;SDS011;56411;52.964;10.540;2023-07-16T07:18:02;6.28;;;2.30;;
16101;SDS011;56411;52.964;10.540;2023-07-16T07:20:29;5.78;;;2.38;;
16101;SDS011;56411;52.964;10.540;2023-07-16T07:22:56;6.00;;;2.70;;
16101;SDS011;56411;52.964;10.540;2023-07-16T07:25:27;4.30;;;2.45;;
16101;SDS011;56411;52.964;10.540;2023-07-16T07:27:55;7.05;;;2.40;;
16101;SDS011;56411;52.964;10.540;2023-07-16T07:30:23;8.43;;;2.70;;
16101;SDS011;56411;52.964;10.540;2023-07-16T07:32:50;6.65;;;2.42;;
16101;SDS011;56411;52.964;10.540;2023-07-16T07:35:17;6.50;;;2.80;;
16101;SDS011;56411;52.964;10.540;2023-07-16T07:37:44;6.68;;;3.00;;
16101;SDS011;56411;52.964;10.540;2023-07-16T07:40:11;6.53;;;3.17;;
16101;SDS011;56411;52.964;10.540;2023-07-16T07:42:40;7.72;;;2.97;;
16101;SDS011;56411;52.964;10.540;2023-07-16T07:45:10;6.93;;;3.05;;
16101;SDS011;56411;52.964;10.540;2023-07-16T07:47:37;6.70;;;3.25;;
16101;SDS011;56411;52.964;10.540;2023-07-16T07:50:05;5.95;;;2.58;;
16101;SDS011;56411;52.964;10.540;2023-07-16T07:52:35;5.47;;;2.70;;
16101;SDS011;56411;52.964;10.540;2023-07-16T07:55:05;5.50;;;2.88;;
16101;SDS011;56411;52.964;10.540;2023-07-16T07:57:33;7.80;;;2.92;;
16101;SDS011;56411;52.964;10.540;2023-07-16T08:00:00;6.82;;;2.78;;
16101;SDS011;56411;52.964;10.540;2023-07-16T08:02:30;7.00;;;2.72;;
16101;SDS011;56411;52.964;10.540;2023-07-16T08:04:58;7.30;;;2.70;;
16101;SDS011;56411;52.964;10.540;2023-07-16T08:07:25;6.80;;;2.70;;
16101;SDS011;56411;52.964;10.540;2023-07-16T08:09:52;6.63;;;2.55;;
16101;SDS011;56411;52.964;10.540;2023-07-16T08:12:19;6.72;;;2.50;;
16101;SDS011;56411;52.964;10.540;2023-07-16T08:14:47;6.88;;;2.63;;
16101;SDS011;56411;52.964;10.540;2023-07-16T08:17:14;8.38;;;2.67;;
16101;SDS011;56411;52.964;10.540;2023-07-16T08:19:43;8.05;;;2.33;;
16101;SDS011;56411;52.964;10.540;2023-07-16T08:22:10;6.82;;;2.67;;
16101;SDS011;56411;52.964;10.540;2023-07-16T08:27:33;6.70;;;2.60;;
16101;SDS011;56411;52.964;10.540;2023-07-16T08:30:19;6.10;;;2.75;;
16101;SDS011;56411;52.964;10.540;2023-07-16T08:32:46;6.38;;;2.88;;
16101;SDS011;56411;52.964;10.540;2023-07-16T08:35:15;7.40;;;2.53;;
16101;SDS011;56411;52.964;10.540;2023-07-16T08:37:42;5.95;;;2.50;;
16101;SDS011;56411;52.964;10.540;2023-07-16T08:40:10;5.85;;;2.42;;
16101;SDS011;56411;52.964;10.540;2023-07-16T08:42:54;6.57;;;2.42;;
16101;SDS011;56411;52.964;10.540;2023-07-16T08:45:38;7.45;;;2.47;;
16101;SDS011;56411;52.964;10.540;2023-07-16T08:48:12;9.55;;;2.90;;
16101;SDS011;56411;52.964;10.540;2023-07-16T08:50:51;7.25;;;2.67;;
16101;SDS011;56411;52.964;10.540;2023-07-16T08:53:18;6.80;;;2.75;;
16101;SDS011;56411;52.964;10.540;2023-07-16T08:55:59;8.02;;;2.72;;
16101;SDS011;56411;52.964;10.540;2023-07-16T08:58:33;8.88;;;3.00;;
16101;SDS011;56411;52.964;10.540;2023-07-16T09:01:02;8.10;;;2.90;;
16101;SDS011;56411;52.964;10.540;2023-07-16T09:03:31;7.28;;;2.78;;
16101;SDS011;56411;52.964;10.540;2023-07-16T09:06:04;6.78;;;2.80;;
16101;SDS011;56411;52.964;10.540;2023-07-16T09:09:54;9.40;;;2.97;;
16101;SDS011;56411;52.964;10.540;2023-07-16T09:12:25;7.72;;;3.08;;
16101;SDS011;56411;52.964;10.540;2023-07-16T09:14:55;8.55;;;3.00;;
16101;SDS011;56411;52.964;10.540;2023-07-16T09:20:35;7.85;;;2.70;;
16101;SDS011;56411;52.964;10.540;2023-07-16T09:23:18;6.43;;;2.67;;
16101;SDS011;56411;52.964;10.540;2023-07-16T09:25:45;7.55;;;2.90;;
16101;SDS011;56411;52.964;10.540;2023-07-16T09:28:14;7.55;;;3.30;;
16101;SDS011;56411;52.964;10.540;2023-07-16T09:30:44;7.75;;;3.10;;
16101;SDS011;56411;52.964;10.540;2023-07-16T09:33:13;6.90;;;2.70;;
16101;SDS011;56411;52.964;10.540;2023-07-16T09:35:41;7.22;;;2.90;;
16101;SDS011;56411;52.964;10.540;2023-07-16T09:38:11;9.75;;;3.20;;
16101;SDS011;56411;52.964;10.540;2023-07-16T09:40:39;7.32;;;3.05;;
16101;SDS011;56411;52.964;10.540;2023-07-16T09:43:08;9.20;;;2.88;;
16101;SDS011;56411;52.964;10.540;2023-07-16T09:45:35;8.35;;;3.22;;
16101;SDS011;56411;52.964;10.540;2023-07-16T09:48:03;9.52;;;3.47;;
16101;SDS011;56411;52.964;10.540;2023-07-16T09:50:31;8.07;;;3.05;;
16101;SDS011;56411;52.964;10.540;2023-07-16T09:53:00;9.68;;;3.20;;
16101;SDS011;56411;52.964;10.540;2023-07-16T09:55:30;10.52;;;3.45;;
16101;SDS011;56411;52.964;10.540;2023-07-16T09:58:02;8.50;;;3.30;;
16101;SDS011;56411;52.964;10.540;2023-07-16T10:00:36;6.88;;;3.20;;
16101;SDS011;56411;52.964;10.540;2023-07-16T10:03:05;8.32;;;3.35;;
16101;SDS011;56411;52.964;10.540;2023-07-16T10:05:35;8.38;;;3.30;;
16101;SDS011;56411;52.964;10.540;2023-07-16T10:08:03;6.53;;;3.33;;
16101;SDS011;56411;52.964;10.540;2023-07-16T10:10:38;9.02;;;3.70;;
16101;SDS011;56411;52.964;10.540;2023-07-16T10:13:07;7.47;;;3.40;;
16101;SDS011;56411;52.964;10.540;2023-07-16T10:15:37;9.20;;;3.47;;
16101;SDS011;56411;52.964;10.540;2023-07-16T10:18:05;8.48;;;3.42;;
16101;SDS011;56411;52.964;10.540;2023-07-16T10:20:33;9.93;;;3.60;;
16101;SDS011;56411;52.964;10.540;2023-07-16T10:23:10;8.18;;;3.47;;
16101;SDS011;56411;52.964;10.540;2023-07-16T10:25:38;9.55;;;3.88;;
16101;SDS011;56411;52.964;10.540;2023-07-16T10:28:06;9.00;;;3.60;;
16101;SDS011;56411;52.964;10.540;2023-07-16T10:30:34;6.78;;;3.17;;
16101;SDS011;56411;52.964;10.540;2023-07-16T10:33:10;9.73;;;3.25;;
16101;SDS011;56411;52.964;10.540;2023-07-16T10:35:45;7.95;;;3.00;;
16101;SDS011;56411;52.964;10.540;2023-07-16T10:38:46;9.35;;;3.40;;
16101;SDS011;56411;52.964;10.540;2023-07-16T10:41:45;8.18;;;3.28;;
16101;SDS011;56411;52.964;10.540;2023-07-16T10:44:15;9.00;;;3.60;;
16101;SDS011;56411;52.964;10.540;2023-07-16T10:48:14;7.00;;;3.00;;
16101;SDS011;56411;52.964;10.540;2023-07-16T10:50:31;8.07;;;3.25;;
16101;SDS011;56411;52.964;10.540;2023-07-16T10:53:42;8.18;;;3.00;;
16101;SDS011;56411;52.964;10.540;2023-07-16T10:56:52;8.57;;;3.10;;
16101;SDS011;56411;52.964;10.540;2023-07-16T11:03:29;8.85;;;3.60;;
16101;SDS011;56411;52.964;10.540;2023-07-16T11:09:05;8.82;;;3.40;;
16101;SDS011;56411;52.964;10.540;2023-07-16T11:14:55;9.70;;;3.42;;
16101;SDS011;56411;52.964;10.540;2023-07-16T11:17:30;9.85;;;3.40;;
16101;SDS011;56411;52.964;10.540;2023-07-16T11:41:09;7.45;;;3.08;;
16101;SDS011;56411;52.964;10.540;2023-07-16T11:54:38;7.30;;;3.17;;
16101;SDS011;56411;52.964;10.540;2023-07-16T11:57:37;7.47;;;3.08;;
16101;SDS011;56411;52.964;10.540;2023-07-16T12:10:13;9.02;;;2.88;;
16101;SDS011;56411;52.964;10.540;2023-07-16T12:12:43;8.25;;;3.15;;
16101;SDS011;56411;52.964;10.540;2023-07-16T12:15:39;7.13;;;3.30;;
16101;SDS011;56411;52.964;10.540;2023-07-16T12:18:25;7.80;;;3.25;;
16101;SDS011;56411;52.964;10.540;2023-07-16T13:05:23;8.18;;;3.30;;
16101;SDS011;56411;52.964;10.540;2023-07-16T13:08:19;5.65;;;2.97;;
16101;SDS011;56411;52.964;10.540;2023-07-16T13:11:12;7.47;;;3.55;;
16101;SDS011;56411;52.964;10.540;2023-07-16T13:13:45;6.65;;;3.22;;
16101;SDS011;56411;52.964;10.540;2023-07-16T13:19:29;7.97;;;3.10;;
16101;SDS011;56411;52.964;10.540;2023-07-16T13:25:23;8.00;;;3.50;;
16101;SDS011;56411;52.964;10.540;2023-07-16T13:27:59;7.63;;;3.40;;
16101;SDS011;56411;52.964;10.540;2023-07-16T13:31:00;7.85;;;3.10;;
16101;SDS011;56411;52.964;10.540;2023-07-16T13:33:56;9.68;;;3.60;;
16101;SDS011;56411;52.964;10.540;2023-07-16T13:37:14;8.10;;;3.40;;
16101;SDS011;56411;52.964;10.540;2023-07-16T13:40:17;8.23;;;3.28;;
16101;SDS011;56411;52.964;10.540;2023-07-16T13:46:04;7.10;;;3.33;;
16101;SDS011;56411;52.964;10.540;2023-07-16T13:49:16;8.15;;;3.17;;
16101;SDS011;56411;52.964;10.540;2023-07-16T13:52:25;8.02;;;3.38;;
16101;SDS011;56411;52.964;10.540;2023-07-16T13:55:22;8.13;;;3.42;;
16101;SDS011;56411;52.964;10.540;2023-07-16T13:58:29;7.47;;;3.05;;
16101;SDS011;56411;52.964;10.540;2023-07-16T14:01:08;6.57;;;3.10;;
16101;SDS011;56411;52.964;10.540;2023-07-16T14:07:29;8.23;;;3.20;;
16101;SDS011;56411;52.964;10.540;2023-07-16T14:10:01;6.53;;;2.90;;
16101;SDS011;56411;52.964;10.540;2023-07-16T14:13:03;5.40;;;3.00;;
16101;SDS011;56411;52.964;10.540;2023-07-16T14:22:00;6.78;;;3.20;;
16101;SDS011;56411;52.964;10.540;2023-07-16T14:24:40;8.60;;;3.30;;
16101;SDS011;56411;52.964;10.540;2023-07-16T14:30:26;7.35;;;3.00;;
16101;SDS011;56411;52.964;10.540;2023-07-16T14:32:56;7.60;;;3.17;;
16101;SDS011;56411;52.964;10.540;2023-07-16T14:35:25;8.10;;;3.00;;
16101;SDS011;56411;52.964;10.540;2023-07-16T14:37:54;7.90;;;3.28;;
16101;SDS011;56411;52.964;10.540;2023-07-16T14:40:22;7.78;;;3.42;;
16101;SDS011;56411;52.964;10.540;2023-07-16T14:42:49;7.78;;;3.40;;
16101;SDS011;56411;52.964;10.540;2023-07-16T14:45:18;6.63;;;3.25;;
16101;SDS011;56411;52.964;10.540;2023-07-16T14:47:47;8.32;;;3.40;;
16101;SDS011;56411;52.964;10.540;2023-07-16T14:50:15;5.93;;;3.00;;
16101;SDS011;56411;52.964;10.540;2023-07-16T14:52:47;9.00;;;3.30;;
16101;SDS011;56411;52.964;10.540;2023-07-16T14:55:17;9.18;;;3.30;;
16101;SDS011;56411;52.964;10.540;2023-07-16T14:57:46;8.98;;;3.70;;
16101;SDS011;56411;52.964;10.540;2023-07-16T15:00:13;8.13;;;3.35;;
16101;SDS011;56411;52.964;10.540;2023-07-16T15:02:42;7.80;;;3.72;;
16101;SDS011;56411;52.964;10.540;2023-07-16T15:05:10;8.00;;;3.22;;
16101;SDS011;56411;52.964;10.540;2023-07-16T15:07:38;8.57;;;3.30;;
16101;SDS011;56411;52.964;10.540;2023-07-16T15:10:10;7.00;;;3.25;;
16101;SDS011;56411;52.964;10.540;2023-07-16T15:12:40;9.13;;;3.90;;
16101;SDS011;56411;52.964;10.540;2023-07-16T15:15:09;7.93;;;3.20;;
16101;SDS011;56411;52.964;10.540;2023-07-16T15:17:38;7.85;;;3.75;;
16101;SDS011;56411;52.964;10.540;2023-07-16T15:20:07;7.18;;;3.50;;
16101;SDS011;56411;52.964;10.540;2023-07-16T15:22:37;7.05;;;3.30;;
16101;SDS011;56411;52.964;10.540;2023-07-16T15:25:11;7.25;;;2.90;;
16101;SDS011;56411;52.964;10.540;2023-07-16T15:27:40;7.47;;;3.30;;
16101;SDS011;56411;52.964;10.540;2023-07-16T15:30:10;7.70;;;3.33;;
16101;SDS011;56411;52.964;10.540;2023-07-16T15:32:38;6.55;;;3.20;;
16101;SDS011;56411;52.964;10.540;2023-07-16T15:35:06;6.68;;;3.03;;
16101;SDS011;56411;52.964;10.540;2023-07-16T15:37:33;7.60;;;3.45;;
16101;SDS011;56411;52.964;10.540;2023-07-16T15:40:11;8.38;;;3.22;;
16101;SDS011;56411;52.964;10.540;2023-07-16T15:42:41;9.73;;;3.33;;
16101;SDS011;56411;52.964;10.540;2023-07-16T15:45:11;6.43;;;3.25;;
16101;SDS011;56411;52.964;10.540;2023-07-16T15:47:41;6.85;;;3.05;;
16101;SDS011;56411;52.964;10.540;2023-07-16T15:50:10;7.32;;;3.25;;
16101;SDS011;56411;52.964;10.540;2023-07-16T15:52:41;7.75;;;3.08;;
16101;SDS011;56411;52.964;10.540;2023-07-16T15:55:08;7.93;;;3.20;;
16101;SDS011;56411;52.964;10.540;2023-07-16T15:57:37;7.22;;;3.20;;
16101;SDS011;56411;52.964;10.540;2023-07-16T16:00:07;7.78;;;3.05;;
16101;SDS011;56411;52.964;10.540;2023-07-16T16:02:39;7.80;;;2.97;;
16101;SDS011;56411;52.964;10.540;2023-07-16T16:05:07;7.75;;;3.55;;
16101;SDS011;56411;52.964;10.540;2023-07-16T16:07:35;5.20;;;2.80;;
16101;SDS011;56411;52.964;10.540;2023-07-16T16:10:02;6.18;;;3.10;;
16101;SDS011;56411;52.964;10.540;2023-07-16T16:12:31;8.45;;;3.55;;
16101;SDS011;56411;52.964;10.540;2023-07-16T16:15:04;5.50;;;2.72;;
16101;SDS011;56411;52.964;10.540;2023-07-16T16:17:32;8.68;;;3.80;;
16101;SDS011;56411;52.964;10.540;2023-07-16T16:20:01;9.65;;;3.45;;
16101;SDS011;56411;52.964;10.540;2023-07-16T16:22:32;8.55;;;3.50;;
16101;SDS011;56411;52.964;10.540;2023-07-16T16:25:00;7.63;;;3.60;;
16101;SDS011;56411;52.964;10.540;2023-07-16T16:27:28;9.05;;;3.78;;
16101;SDS011;56411;52.964;10.540;2023-07-16T16:29:56;7.05;;;2.97;;
16101;SDS011;56411;52.964;10.540;2023-07-16T16:32:26;8.52;;;3.10;;
16101;SDS011;56411;52.964;10.540;2023-07-16T16:34:53;6.53;;;3.20;;
16101;SDS011;56411;52.964;10.540;2023-07-16T16:37:20;6.47;;;3.00;;
16101;SDS011;56411;52.964;10.540;2023-07-16T16:39:52;7.40;;;3.28;;
16101;SDS011;56411;52.964;10.540;2023-07-16T16:42:23;6.35;;;3.03;;
16101;SDS011;56411;52.964;10.540;2023-07-16T16:44:50;7.82;;;3.20;;
16101;SDS011;56411;52.964;10.540;2023-07-16T16:47:21;6.30;;;3.08;;
16101;SDS011;56411;52.964;10.540;2023-07-16T16:49:50;6.68;;;3.22;;
16101;SDS011;56411;52.964;10.540;2023-07-16T16:52:21;6.88;;;3.00;;
16101;SDS011;56411;52.964;10.540;2023-07-16T16:54:49;7.30;;;3.03;;
16101;SDS011;56411;52.964;10.540;2023-07-16T16:57:17;7.25;;;3.30;;
16101;SDS011;56411;52.964;10.540;2023-07-16T16:59:47;6.53;;;3.30;;
16101;SDS011;56411;52.964;10.540;2023-07-16T17:02:14;6.25;;;3.00;;
16101;SDS011;56411;52.964;10.540;2023-07-16T17:04:40;8.02;;;3.33;;
16101;SDS011;56411;52.964;10.540;2023-07-16T17:07:10;9.80;;;3.47;;